createdAt,value
2023-03-29T00:00:14.503Z,1.70
2023-03-29T00:02:43.751Z,1.82
2023-03-29T00:05:12.353Z,1.82
2023-03-29T00:07:39.920Z,1.88
2023-03-29T00:10:10.045Z,1.93
2023-03-29T00:12:40.167Z,1.83
2023-03-29T00:15:08.870Z,1.84
2023-03-29T00:17:36.428Z,1.85
2023-03-29T00:20:06.919Z,1.84
2023-03-29T00:22:34.653Z,1.80
2023-03-29T00:25:02.113Z,1.68
2023-03-29T00:27:29.629Z,1.67
2023-03-29T00:29:57.927Z,1.72
2023-03-29T00:34:54.684Z,1.55
2023-03-29T00:37:26.981Z,1.54
2023-03-29T00:39:54.537Z,1.44
2023-03-29T00:42:23.297Z,1.32
2023-03-29T00:44:59.270Z,1.22
2023-03-29T00:47:42.338Z,1.09
2023-03-29T00:50:33.267Z,1.21
2023-03-29T00:53:12.491Z,1.22
2023-03-29T00:56:02.746Z,1.16
2023-03-29T00:58:51.964Z,1.21
2023-03-29T01:01:28.169Z,1.27
2023-03-29T01:04:04.755Z,1.23
2023-03-29T01:06:37.123Z,1.19
2023-03-29T01:09:10.368Z,0.96
2023-03-29T01:11:42.415Z,1.03
2023-03-29T01:14:39.384Z,0.85
2023-03-29T01:17:07.799Z,0.88
2023-03-29T01:19:42.357Z,0.85
2023-03-29T01:22:28.357Z,0.53
2023-03-29T01:25:07.540Z,0.58
2023-03-29T01:27:37.873Z,0.43
2023-03-29T01:30:12.056Z,0.50
2023-03-29T01:32:45.998Z,0.55
2023-03-29T01:35:23.530Z,0.56
2023-03-29T01:38:07.404Z,0.49
2023-03-29T01:40:35.843Z,0.56
2023-03-29T01:43:12.061Z,0.72
2023-03-29T01:45:51.727Z,0.72
2023-03-29T01:48:31.591Z,0.71
2023-03-29T01:51:09.791Z,0.81
2023-03-29T01:53:50.882Z,0.81
2023-03-29T01:56:23.047Z,0.81
2023-03-29T01:58:55.997Z,0.76
2023-03-29T02:01:28.313Z,0.74
2023-03-29T02:04:02.966Z,0.83
2023-03-29T02:06:34.194Z,0.81
2023-03-29T02:09:03.772Z,0.92
2023-03-29T02:11:31.349Z,0.91
2023-03-29T02:13:59.381Z,0.92
2023-03-29T02:16:27.121Z,0.98
2023-03-29T02:18:57.736Z,1.00
2023-03-29T02:21:37.422Z,0.92
2023-03-29T02:24:09.214Z,0.89
2023-03-29T02:26:39.365Z,0.84
2023-03-29T02:29:07.354Z,0.88
2023-03-29T02:31:55.766Z,0.82
2023-03-29T02:34:33.251Z,0.68
2023-03-29T02:37:06.894Z,0.72
2023-03-29T02:39:36.018Z,0.81
2023-03-29T02:42:05.400Z,0.77
2023-03-29T02:44:37.498Z,0.79
2023-03-29T02:47:16.142Z,0.75
2023-03-29T02:49:44.394Z,0.71
2023-03-29T02:52:17.417Z,0.74
2023-03-29T02:54:48.561Z,0.65
2023-03-29T02:57:16.481Z,0.59
2023-03-29T02:59:45.013Z,0.55
2023-03-29T03:02:13.803Z,0.50
2023-03-29T03:04:43.338Z,0.50
2023-03-29T03:07:10.763Z,0.51
2023-03-29T03:09:38.300Z,0.57
2023-03-29T03:12:06.324Z,0.70
2023-03-29T03:14:34.453Z,0.81
2023-03-29T03:17:04.413Z,0.90
2023-03-29T03:19:32.823Z,0.91
2023-03-29T03:22:00.428Z,0.90
2023-03-29T03:24:32.735Z,0.86
2023-03-29T03:27:00.830Z,0.92
2023-03-29T03:29:28.466Z,0.85
2023-03-29T03:31:58.590Z,0.81
2023-03-29T03:34:28.545Z,0.80
2023-03-29T03:36:56.137Z,0.82
2023-03-29T03:39:23.673Z,0.85
2023-03-29T03:41:51.677Z,0.83
2023-03-29T03:44:19.546Z,0.70
2023-03-29T03:46:47.824Z,0.73
2023-03-29T03:49:16.597Z,0.64
2023-03-29T03:51:45.589Z,0.43
2023-03-29T03:54:14.193Z,0.35
2023-03-29T03:56:43.665Z,0.23
2023-03-29T03:59:11.836Z,0.36
2023-03-29T04:01:43.501Z,0.38
2023-03-29T04:04:12.679Z,0.31
2023-03-29T04:06:43.757Z,0.25
2023-03-29T04:09:14.913Z,0.15
2023-03-29T04:11:42.641Z,0.15
2023-03-29T04:14:11.292Z,0.03
2023-03-29T04:16:39.669Z,0.05
2023-03-29T04:19:08.399Z,0.07
2023-03-29T04:21:36.002Z,0.15
2023-03-29T04:24:03.971Z,0.01
2023-03-29T04:26:31.995Z,0.06
2023-03-29T04:29:01.433Z,0.06
2023-03-29T04:31:31.831Z,0.14
2023-03-29T04:34:00.540Z,0.09
2023-03-29T04:36:29.514Z,0.17
2023-03-29T04:38:58.637Z,0.23
2023-03-29T04:41:27.497Z,0.18
2023-03-29T04:43:56.245Z,0.22
2023-03-29T04:46:27.144Z,0.03
2023-03-29T04:48:56.637Z,0.21
2023-03-29T04:51:25.396Z,0.34
2023-03-29T04:53:53.938Z,0.42
2023-03-29T04:56:23.253Z,0.52
2023-03-29T04:58:53.449Z,0.58
2023-03-29T05:01:22.130Z,0.58
2023-03-29T05:03:50.568Z,0.57
2023-03-29T05:06:18.812Z,0.56
2023-03-29T05:08:47.051Z,0.54
2023-03-29T05:11:17.613Z,0.59
2023-03-29T05:13:45.565Z,0.67
2023-03-29T05:16:13.240Z,0.74
2023-03-29T05:18:41.092Z,0.77
2023-03-29T05:21:10.232Z,0.76
2023-03-29T05:23:38.342Z,0.79
2023-03-29T05:26:09.902Z,0.92
2023-03-29T05:28:38.035Z,0.94
2023-03-29T05:31:06.371Z,0.91
2023-03-29T05:33:35.535Z,0.94
2023-03-29T05:36:05.605Z,0.97
2023-03-29T05:38:34.944Z,1.05
2023-03-29T05:41:03.370Z,1.10
2023-03-29T05:43:33.601Z,1.27
2023-03-29T05:46:01.939Z,1.38
2023-03-29T05:48:30.227Z,1.50
2023-03-29T05:50:57.926Z,1.49
2023-03-29T05:53:29.696Z,1.57
2023-03-29T05:55:58.064Z,1.63
2023-03-29T05:58:26.707Z,1.73
2023-03-29T06:00:54.988Z,1.87
2023-03-29T06:03:27.802Z,2.00
2023-03-29T06:05:59.316Z,2.14
2023-03-29T06:08:28.069Z,2.40
2023-03-29T06:11:05.794Z,2.49
2023-03-29T06:13:38.874Z,2.52
2023-03-29T06:16:07.290Z,2.61
2023-03-29T06:18:36.223Z,2.69
2023-03-29T06:21:04.420Z,2.77
2023-03-29T06:23:32.533Z,2.77
2023-03-29T06:26:00.629Z,2.79
2023-03-29T06:28:28.244Z,3.07
2023-03-29T06:30:56.626Z,3.14
2023-03-29T06:33:25.458Z,3.09
2023-03-29T06:35:53.814Z,3.07
2023-03-29T06:38:21.981Z,3.23
2023-03-29T06:40:52.752Z,3.37
2023-03-29T06:43:20.966Z,3.57
2023-03-29T06:45:54.292Z,3.79
2023-03-29T06:48:23.162Z,4.01
2023-03-29T06:50:51.160Z,4.12
2023-03-29T06:53:19.070Z,4.13
2023-03-29T06:55:47.711Z,4.26
2023-03-29T06:58:16.615Z,4.48
2023-03-29T07:00:44.397Z,4.68
2023-03-29T07:03:20.164Z,4.83
2023-03-29T07:05:51.926Z,5.08
2023-03-29T07:08:22.589Z,5.30
2023-03-29T07:10:53.387Z,5.72
2023-03-29T07:13:23.635Z,5.93
2023-03-29T07:15:52.472Z,6.25
2023-03-29T07:18:20.418Z,6.67
2023-03-29T07:20:48.533Z,6.94
2023-03-29T07:23:17.509Z,7.41
2023-03-29T07:25:45.306Z,7.78
2023-03-29T07:28:13.307Z,8.12
2023-03-29T07:30:40.952Z,7.93
2023-03-29T07:33:09.568Z,8.02
2023-03-29T07:35:38.518Z,7.95
2023-03-29T07:38:08.303Z,8.17
2023-03-29T07:40:36.576Z,8.17
2023-03-29T07:43:10.975Z,8.19
2023-03-29T07:45:40.742Z,8.51
2023-03-29T07:48:09.006Z,8.84
2023-03-29T07:50:38.932Z,8.75
2023-03-29T07:53:07.376Z,8.65
2023-03-29T07:55:35.640Z,8.69
2023-03-29T07:58:04.400Z,8.84
2023-03-29T08:00:34.234Z,9.01
2023-03-29T08:03:04.303Z,9.29
2023-03-29T08:05:40.586Z,9.77
2023-03-29T08:08:09.962Z,9.84
2023-03-29T08:10:39.480Z,9.97
2023-03-29T08:13:09.657Z,10.13
2023-03-29T08:15:40.011Z,10.35
2023-03-29T08:18:09.655Z,10.55
2023-03-29T08:20:37.341Z,10.51
2023-03-29T08:23:05.300Z,10.65
2023-03-29T08:25:35.208Z,10.80
2023-03-29T08:28:03.565Z,11.06
2023-03-29T08:30:33.231Z,10.98
2023-03-29T08:33:01.683Z,10.64
2023-03-29T08:35:29.375Z,10.60
2023-03-29T08:37:58.494Z,10.60
2023-03-29T08:40:30.330Z,11.24
2023-03-29T08:43:26.127Z,11.52
2023-03-29T08:46:19.360Z,11.14
2023-03-29T08:49:09.280Z,11.23
2023-03-29T08:51:42.641Z,10.90
2023-03-29T08:54:28.205Z,10.45
2023-03-29T08:57:07.598Z,10.27
2023-03-29T08:59:35.975Z,10.43
2023-03-29T09:02:10.659Z,10.65
2023-03-29T09:04:42.733Z,10.69
2023-03-29T09:07:11.578Z,10.69
2023-03-29T09:09:42.302Z,10.62
2023-03-29T09:12:26.440Z,10.55
2023-03-29T09:15:19.780Z,10.89
2023-03-29T09:18:13.858Z,11.15
2023-03-29T09:20:54.446Z,11.12
2023-03-29T09:23:49.306Z,11.34
2023-03-29T09:26:24.662Z,11.87
2023-03-29T09:29:04.653Z,11.99
2023-03-29T09:31:43.523Z,12.11
2023-03-29T09:35:00.978Z,12.18
2023-03-29T09:37:33.454Z,12.57
2023-03-29T09:40:05.367Z,12.39
2023-03-29T09:42:38.042Z,12.49
2023-03-29T09:45:09.350Z,12.77
2023-03-29T09:47:47.871Z,12.83
2023-03-29T09:50:30.983Z,12.83
2023-03-29T09:53:00.214Z,12.94
2023-03-29T09:55:31.406Z,13.11
2023-03-29T09:58:02.166Z,13.08
2023-03-29T10:00:31.051Z,12.86
2023-03-29T10:03:00.351Z,12.90
2023-03-29T10:05:32.640Z,12.95
2023-03-29T10:08:01.791Z,12.42
2023-03-29T10:10:33.493Z,12.84
2023-03-29T10:13:05.673Z,12.86
2023-03-29T10:15:33.548Z,12.62
2023-03-29T10:18:06.862Z,12.64
2023-03-29T10:20:39.889Z,12.99
2023-03-29T10:23:17.400Z,13.17
2023-03-29T10:25:45.568Z,13.26
2023-03-29T10:28:18.816Z,14.89
2023-03-29T10:30:54.288Z,14.40
2023-03-29T10:33:25.081Z,13.84
2023-03-29T10:35:52.663Z,13.57
2023-03-29T10:38:23.766Z,13.31
2023-03-29T10:40:53.788Z,13.18
2023-03-29T10:43:26.228Z,12.97
2023-03-29T10:45:56.915Z,12.45
2023-03-29T10:48:29.003Z,12.49
2023-03-29T10:51:01.976Z,12.17
2023-03-29T10:53:34.263Z,12.22
2023-03-29T10:56:52.348Z,12.09
2023-03-29T10:59:37.630Z,11.86
2023-03-29T11:02:05.412Z,11.38
2023-03-29T11:05:03.597Z,11.26
2023-03-29T11:07:56.330Z,11.35
2023-03-29T11:10:30.796Z,11.40
2023-03-29T11:13:01.492Z,11.31
2023-03-29T11:16:02.857Z,11.29
2023-03-29T11:19:03.217Z,11.48
2023-03-29T11:21:50.058Z,11.42
2023-03-29T11:24:44.142Z,11.52
2023-03-29T11:27:34.461Z,11.44
2023-03-29T11:30:26.898Z,11.63
2023-03-29T11:33:23.184Z,11.70
2023-03-29T11:36:14.630Z,11.86
2023-03-29T11:38:54.660Z,11.87
2023-03-29T11:41:27.739Z,11.52
2023-03-29T11:44:17.791Z,11.48
2023-03-29T11:47:07.302Z,11.65
2023-03-29T11:49:45.534Z,11.39
2023-03-29T11:52:20.229Z,11.81
2023-03-29T11:55:03.641Z,12.26
2023-03-29T11:57:38.788Z,12.40
2023-03-29T12:00:19.734Z,12.50
2023-03-29T12:02:55.823Z,12.61
2023-03-29T12:05:30.590Z,12.34
2023-03-29T12:08:09.708Z,12.54
2023-03-29T12:11:03.876Z,12.62
2023-03-29T12:13:37.973Z,12.66
2023-03-29T12:16:23.912Z,12.71
2023-03-29T12:18:56.406Z,12.46
2023-03-29T12:21:29.043Z,12.47
2023-03-29T12:23:58.266Z,12.50
2023-03-29T12:26:57.830Z,12.35
2023-03-29T12:29:50.666Z,12.35
2023-03-29T12:32:39.929Z,12.29
2023-03-29T12:35:27.893Z,12.25
2023-03-29T12:38:18.134Z,12.32
2023-03-29T12:41:00.789Z,12.37
2023-03-29T12:43:33.225Z,12.50
2023-03-29T12:46:17.438Z,12.62
2023-03-29T12:48:49.319Z,12.66
2023-03-29T12:51:21.150Z,12.57
2023-03-29T12:54:01.479Z,12.51
2023-03-29T12:56:40.664Z,12.48
2023-03-29T12:59:11.659Z,12.33
2023-03-29T13:01:43.248Z,12.49
2023-03-29T13:04:20.700Z,12.30
2023-03-29T13:06:48.477Z,12.08
2023-03-29T13:09:46.575Z,12.16
2023-03-29T13:12:32.184Z,12.27
2023-03-29T13:15:25.257Z,12.35
2023-03-29T13:18:16.273Z,12.40
2023-03-29T13:21:09.852Z,12.52
2023-03-29T13:23:52.763Z,12.44
2023-03-29T13:26:28.992Z,12.40
2023-03-29T13:29:18.798Z,13.07
2023-03-29T13:32:22.410Z,13.46
2023-03-29T13:35:06.351Z,13.57
2023-03-29T13:38:08.132Z,13.73
2023-03-29T13:40:42.961Z,14.15
2023-03-29T13:43:24.558Z,14.52
2023-03-29T13:45:58.226Z,14.50
2023-03-29T13:48:33.579Z,14.27
2023-03-29T13:51:18.473Z,13.85
2023-03-29T13:53:50.166Z,13.62
2023-03-29T13:56:27.154Z,13.45
2023-03-29T13:59:03.707Z,13.17
2023-03-29T14:01:43.337Z,13.02
2023-03-29T14:04:17.087Z,12.71
2023-03-29T14:06:51.763Z,12.74
2023-03-29T14:09:30.099Z,12.63
2023-03-29T14:12:01.202Z,12.48
2023-03-29T14:14:32.786Z,12.38
2023-03-29T14:17:01.393Z,12.25
2023-03-29T14:19:36.612Z,12.28
2023-03-29T14:22:10.847Z,12.27
2023-03-29T14:24:41.041Z,12.30
2023-03-29T14:27:12.094Z,12.10
2023-03-29T14:29:39.949Z,12.00
2023-03-29T14:32:12.666Z,11.98
2023-03-29T14:34:40.768Z,11.94
2023-03-29T14:37:13.338Z,11.96
2023-03-29T14:39:41.753Z,11.95
2023-03-29T14:42:15.898Z,11.96
2023-03-29T14:44:44.919Z,12.00
2023-03-29T14:47:29.519Z,12.05
2023-03-29T14:50:00.974Z,12.05
2023-03-29T14:52:30.576Z,12.02
2023-03-29T14:55:02.021Z,11.95
2023-03-29T14:57:35.524Z,11.95
2023-03-29T15:00:35.018Z,11.97
2023-03-29T15:03:03.086Z,11.90
2023-03-29T15:05:33.666Z,11.72
2023-03-29T15:08:03.190Z,11.67
2023-03-29T15:10:36.883Z,11.58
2023-03-29T15:13:06.825Z,11.49
2023-03-29T15:15:38.480Z,11.52
2023-03-29T15:18:08.515Z,11.47
2023-03-29T15:20:41.585Z,11.40
2023-03-29T15:23:21.645Z,11.34
2023-03-29T15:25:58.450Z,11.32
2023-03-29T15:28:32.680Z,11.27
2023-03-29T15:33:37.161Z,11.28
2023-03-29T15:36:07.164Z,11.21
2023-03-29T15:38:43.853Z,11.14
2023-03-29T15:41:14.369Z,11.13
2023-03-29T15:43:43.125Z,11.12
2023-03-29T15:46:12.875Z,11.09
2023-03-29T15:48:40.864Z,11.04
2023-03-29T15:51:10.849Z,11.06
2023-03-29T15:53:39.122Z,10.97
2023-03-29T15:56:10.190Z,10.97
2023-03-29T15:58:38.210Z,10.96
2023-03-29T16:01:39.037Z,10.92
2023-03-29T16:04:11.246Z,10.94
2023-03-29T16:06:39.183Z,10.92
2023-03-29T16:09:08.762Z,10.92
2023-03-29T16:11:36.398Z,10.90
2023-03-29T16:14:27.711Z,10.81
2023-03-29T16:16:59.346Z,10.80
2023-03-29T16:19:28.069Z,10.80
2023-03-29T16:21:56.806Z,10.71
2023-03-29T16:24:31.176Z,10.70
2023-03-29T16:27:00.052Z,10.60
2023-03-29T16:29:27.782Z,10.62
2023-03-29T16:31:55.461Z,10.59
2023-03-29T16:34:23.785Z,10.54
2023-03-29T16:36:52.978Z,10.48
2023-03-29T16:39:20.840Z,10.45
2023-03-29T16:41:50.241Z,10.36
2023-03-29T16:44:22.988Z,10.35
2023-03-29T16:46:54.252Z,10.33
2023-03-29T16:49:22.528Z,10.21
2023-03-29T16:51:50.079Z,10.19
2023-03-29T16:54:18.956Z,10.16
2023-03-29T16:56:46.988Z,10.14
2023-03-29T16:59:15.395Z,10.19
2023-03-29T17:01:43.300Z,10.17
2023-03-29T17:04:11.620Z,10.09
2023-03-29T17:06:39.138Z,9.99
2023-03-29T17:09:07.415Z,10.04
2023-03-29T17:11:36.056Z,9.93
2023-03-29T17:14:03.622Z,9.80
2023-03-29T17:16:31.536Z,9.86
2023-03-29T17:19:02.517Z,9.86
2023-03-29T17:21:30.037Z,9.76
2023-03-29T17:23:57.911Z,9.83
2023-03-29T17:26:26.074Z,9.85
2023-03-29T17:28:53.573Z,9.79
2023-03-29T17:31:21.545Z,9.75
2023-03-29T17:33:51.992Z,9.69
2023-03-29T17:36:24.149Z,9.51
2023-03-29T17:38:52.134Z,9.49
2023-03-29T17:41:19.607Z,9.30
2023-03-29T17:43:47.919Z,9.36
2023-03-29T17:46:16.973Z,9.53
2023-03-29T17:48:46.451Z,9.61
2023-03-29T17:51:13.945Z,9.64
2023-03-29T17:53:41.755Z,9.72
2023-03-29T17:56:09.245Z,9.75
2023-03-29T17:58:36.698Z,9.74
2023-03-29T18:01:09.219Z,9.75
2023-03-29T18:03:37.441Z,9.73
2023-03-29T18:06:06.344Z,9.72
2023-03-29T18:08:34.135Z,9.65
2023-03-29T18:11:11.552Z,9.57
2023-03-29T18:13:40.026Z,9.46
2023-03-29T18:16:09.071Z,9.38
2023-03-29T18:18:37.401Z,9.42
2023-03-29T18:21:06.964Z,9.32
2023-03-29T18:23:34.819Z,9.23
2023-03-29T18:26:04.637Z,9.15
2023-03-29T18:28:32.650Z,9.14
2023-03-29T18:31:01.317Z,9.18
2023-03-29T18:33:30.329Z,9.26
2023-03-29T18:35:57.948Z,9.20
2023-03-29T18:38:25.821Z,9.23
2023-03-29T18:40:53.346Z,9.18
2023-03-29T18:43:20.880Z,9.19
2023-03-29T18:45:48.891Z,9.21
2023-03-29T18:48:16.477Z,9.24
2023-03-29T18:50:47.298Z,9.29
2023-03-29T18:53:16.701Z,9.28
2023-03-29T18:55:44.457Z,9.25
2023-03-29T18:58:13.747Z,9.11
2023-03-29T19:00:42.537Z,9.02
2023-03-29T19:03:10.448Z,8.97
2023-03-29T19:05:39.216Z,9.03
2023-03-29T19:08:08.570Z,9.10
2023-03-29T19:10:37.618Z,9.12
2023-03-29T19:13:05.596Z,9.11
2023-03-29T19:15:34.758Z,9.11
2023-03-29T19:18:02.662Z,9.11
2023-03-29T19:20:30.207Z,9.08
2023-03-29T19:22:58.022Z,9.04
2023-03-29T19:25:25.691Z,9.05
2023-03-29T19:27:53.322Z,9.04
2023-03-29T19:30:23.381Z,9.05
2023-03-29T19:32:51.578Z,8.99
2023-03-29T19:35:19.236Z,8.97
2023-03-29T19:37:47.087Z,8.93
2023-03-29T19:40:15.350Z,8.90
2023-03-29T19:42:42.930Z,8.94
2023-03-29T19:45:11.287Z,8.85
2023-03-29T19:47:38.912Z,8.79
2023-03-29T19:50:07.067Z,8.70
2023-03-29T19:52:35.269Z,8.68
2023-03-29T19:55:02.871Z,8.68
2023-03-29T19:57:30.888Z,8.74
2023-03-29T19:59:58.767Z,8.70
2023-03-29T20:02:26.310Z,8.61
2023-03-29T20:04:55.135Z,8.61
2023-03-29T20:07:22.791Z,8.60
2023-03-29T20:09:50.444Z,8.52
2023-03-29T20:12:18.239Z,8.59
2023-03-29T20:14:45.950Z,8.54
2023-03-29T20:17:13.509Z,8.56
2023-03-29T20:19:44.163Z,8.58
2023-03-29T20:22:12.133Z,8.48
2023-03-29T20:24:39.633Z,8.44
2023-03-29T20:27:07.474Z,8.40
2023-03-29T20:29:35.473Z,8.37
2023-03-29T20:32:03.452Z,8.38
2023-03-29T20:34:31.313Z,8.37
2023-03-29T20:37:00.912Z,8.38
2023-03-29T20:39:29.658Z,8.39
2023-03-29T20:41:58.128Z,8.45
2023-03-29T20:44:28.425Z,8.49
2023-03-29T20:47:08.427Z,8.46
2023-03-29T20:49:37.231Z,8.45
2023-03-29T20:52:15.559Z,8.44
2023-03-29T20:54:44.904Z,8.41
2023-03-29T20:57:18.026Z,8.38
2023-03-29T20:59:49.298Z,8.41
2023-03-29T21:02:21.179Z,8.37
2023-03-29T21:04:51.906Z,8.34
2023-03-29T21:07:20.354Z,8.20
2023-03-29T21:09:49.956Z,8.18
2023-03-29T21:12:17.843Z,8.11
2023-03-29T21:14:47.464Z,8.11
2023-03-29T21:17:15.375Z,8.10
2023-03-29T21:19:43.212Z,8.09
2023-03-29T21:22:13.785Z,8.11
2023-03-29T21:24:41.397Z,8.03
2023-03-29T21:27:09.281Z,7.98
2023-03-29T21:29:36.760Z,7.94
2023-03-29T21:32:04.657Z,7.99
2023-03-29T21:34:32.572Z,8.01
2023-03-29T21:37:00.281Z,7.98
2023-03-29T21:39:28.344Z,7.90
2023-03-29T21:41:56.261Z,7.98
2023-03-29T21:44:23.769Z,8.00
2023-03-29T21:46:51.346Z,7.92
2023-03-29T21:49:19.385Z,7.91
2023-03-29T21:51:46.885Z,7.92
2023-03-29T21:54:14.418Z,7.96
2023-03-29T21:56:42.480Z,7.93
2023-03-29T21:59:09.991Z,7.86
2023-03-29T22:01:37.629Z,7.82
2023-03-29T22:04:05.432Z,7.79
2023-03-29T23:23:51.484Z,7.60
2023-03-29T23:26:19.474Z,7.60
2023-03-29T23:28:47.014Z,7.56
2023-03-29T23:31:18.462Z,7.50
2023-03-29T23:33:46.392Z,7.53
2023-03-29T23:36:16.628Z,7.64
2023-03-29T23:38:46.178Z,7.67
2023-03-29T23:41:14.540Z,7.61
2023-03-29T23:43:44.362Z,7.64
2023-03-29T23:46:17.236Z,7.69
2023-03-29T23:48:50.189Z,7.70
2023-03-29T23:51:22.882Z,7.70
2023-03-29T23:53:51.275Z,7.72
2023-03-29T23:56:18.964Z,7.75
2023-03-29T23:58:46.882Z,7.61
